Time,TemperatureF,DewpointF,PressureIn,WindDirection,WindDirectionDegrees,WindSpeedMPH,WindSpeedGustMPH,Humidity,HourlyPrecipIn,Conditions,Clouds,dailyrainin,SoftwareType,DateUTC
2013-03-24 00:00:00,68.6,68.0,29.61,WNW,300,4.0,8.0,99,0.00,,,0.00,weatherlink.com 1.10,2013-03-24 05:00:00,
2013-03-24 00:15:00,68.5,68.0,29.62,NW,311,4.0,5.0,99,0.00,,,0.00,weatherlink.com 1.10,2013-03-24 05:15:00,
2013-03-24 00:30:00,68.5,68.0,29.62,NW,304,2.0,4.0,99,0.00,,,0.00,weatherlink.com 1.10,2013-03-24 05:30:00,
2013-03-24 00:45:00,68.4,68.0,29.62,NW,304,0.0,2.0,99,0.00,,,0.00,weatherlink.com 1.10,2013-03-24 05:45:00,
2013-03-24 01:00:00,68.0,68.0,29.61,NW,321,1.0,3.0,99,0.00,,,0.00,weatherlink.com 1.10,2013-03-24 06:00:00,
2013-03-24 01:15:00,67.4,67.0,29.61,North,349,3.0,7.0,99,0.00,,,0.00,weatherlink.com 1.10,2013-03-24 06:15:00,
2013-03-24 01:30:00,65.6,65.0,29.62,North,351,4.0,8.0,98,0.00,,,0.00,weatherlink.com 1.10,2013-03-24 06:30:00,
2013-03-24 01:46:00,63.5,63.0,29.63,NNE,13,5.0,8.0,98,0.00,,,0.00,weatherlink.com 1.10,2013-03-24 06:46:00,
2013-03-24 02:01:00,62.8,62.0,29.63,NNW,339,0.0,3.0,98,0.00,,,0.00,weatherlink.com 1.10,2013-03-24 07:01:00,
2013-03-24 02:16:00,62.5,62.0,29.63,NNE,13,0.0,3.0,98,0.00,,,0.00,weatherlink.com 1.10,2013-03-24 07:16:00,
2013-03-24 02:31:00,62.4,62.0,29.63,NNW,331,0.0,3.0,98,0.00,,,0.00,weatherlink.com 1.10,2013-03-24 07:31:00,
2013-03-24 02:46:00,62.3,62.0,29.63,NNW,331,0.0,1.0,98,0.00,,,0.00,weatherlink.com 1.10,2013-03-24 07:46:00,
2013-03-24 03:01:00,62.2,62.0,29.63,NNW,331,0.0,1.0,98,0.00,,,0.00,weatherlink.com 1.10,2013-03-24 08:01:00,
2013-03-24 03:16:00,62.2,62.0,29.62,NNW,331,0.0,1.0,98,0.00,,,0.00,weatherlink.com 1.10,2013-03-24 08:16:00,
2013-03-24 03:31:00,62.0,62.0,29.62,NNW,344,0.0,1.0,98,0.00,,,0.00,weatherlink.com 1.10,2013-03-24 08:31:00,
2013-03-24 03:46:00,61.6,61.0,29.62,NNE,17,1.0,4.0,98,0.00,,,0.00,weatherlink.com 1.10,2013-03-24 08:46:00,
2013-03-24 04:01:00,61.4,61.0,29.61,ENE,71,5.0,5.0,98,0.00,,,0.00,weatherlink.com 1.10,2013-03-24 09:01:00,
2013-03-24 05:31:00,60.8,60.0,29.66,NNW,340,4.0,7.0,98,0.00,,,0.00,weatherlink.com 1.10,2013-03-24 10:31:00,
2013-03-24 05:46:00,60.5,60.0,29.67,NNW,333,3.0,6.0,97,0.00,,,0.00,weatherlink.com 1.10,2013-03-24 10:46:00,
2013-03-24 06:01:00,60.4,60.0,29.69,NNW,331,4.0,7.0,97,0.00,,,0.00,weatherlink.com 1.10,2013-03-24 11:01:00,
2013-03-24 06:16:00,60.2,59.0,29.68,NW,306,2.0,5.0,97,0.00,,,0.00,weatherlink.com 1.10,2013-03-24 11:16:00,
2013-03-24 06:31:00,59.9,59.0,29.69,NW,304,1.0,3.0,97,0.00,,,0.00,weatherlink.com 1.10,2013-03-24 11:31:00,
2013-03-24 06:46:00,59.9,59.0,29.70,NW,306,3.0,4.0,97,0.00,,,0.00,weatherlink.com 1.10,2013-03-24 11:46:00,
2013-03-24 07:01:00,59.6,59.0,29.71,NW,309,5.0,6.0,97,0.00,,,0.00,weatherlink.com 1.10,2013-03-24 12:01:00,
2013-03-24 07:16:00,59.7,59.0,29.72,WNW,302,2.0,5.0,97,0.00,,,0.00,weatherlink.com 1.10,2013-03-24 12:16:00,
2013-03-24 07:31:00,59.7,59.0,29.73,NW,304,3.0,8.0,97,0.00,,,0.00,weatherlink.com 1.10,2013-03-24 12:31:00,
2013-03-24 07:46:00,60.0,59.0,29.76,WNW,297,6.0,11.0,97,0.00,,,0.00,weatherlink.com 1.10,2013-03-24 12:46:00,
2013-03-24 08:01:00,60.0,59.0,29.74,NW,323,2.0,17.0,96,0.00,,,0.00,weatherlink.com 1.10,2013-03-24 13:01:00,
2013-03-24 08:16:00,60.1,59.0,29.76,NW,304,3.0,12.0,95,0.00,,,0.00,weatherlink.com 1.10,2013-03-24 13:16:00,
2013-03-24 08:31:00,60.0,58.0,29.77,NNW,330,1.0,16.0,94,0.00,,,0.00,weatherlink.com 1.10,2013-03-24 13:31:00,
2013-03-24 08:46:00,59.9,58.0,29.78,WNW,295,6.0,13.0,94,0.00,,,0.00,weatherlink.com 1.10,2013-03-24 13:46:00,
2013-03-24 09:02:00,60.0,58.0,29.79,NNW,328,1.0,11.0,93,0.00,,,0.00,weatherlink.com 1.10,2013-03-24 14:02:00,
2013-03-24 09:17:00,60.0,57.0,29.80,NW,325,5.0,16.0,91,0.00,,,0.00,weatherlink.com 1.10,2013-03-24 14:17:00,
2013-03-24 09:31:00,61.0,58.0,29.80,NW,321,3.0,9.0,91,0.00,,,0.00,weatherlink.com 1.10,2013-03-24 14:31:00,
2013-03-24 09:47:00,63.0,59.0,29.81,NW,304,9.0,9.0,88,0.00,,,0.00,weatherlink.com 1.10,2013-03-24 14:47:00,
2013-03-24 10:02:00,62.5,58.0,29.82,NW,313,5.0,15.0,86,0.00,,,0.00,weatherlink.com 1.10,2013-03-24 15:02:00,
2013-03-24 10:17:00,61.9,57.0,29.82,WNW,296,6.0,19.0,84,0.00,,,0.00,weatherlink.com 1.10,2013-03-24 15:17:00,
2013-03-24 10:32:00,62.1,57.0,29.83,WNW,297,8.0,15.0,83,0.00,,,0.00,weatherlink.com 1.10,2013-03-24 15:32:00,
2013-03-24 10:47:00,63.0,57.0,29.83,WNW,293,14.0,17.0,80,0.00,,,0.00,weatherlink.com 1.10,2013-03-24 15:47:00,
2013-03-24 11:02:00,63.5,57.0,29.84,West,274,14.0,18.0,78,0.00,,,0.00,weatherlink.com 1.10,2013-03-24 16:02:00,
2013-03-24 11:17:00,64.2,56.0,29.84,WNW,303,8.0,23.0,74,0.00,,,0.00,weatherlink.com 1.10,2013-03-24 16:17:00,
2013-03-24 11:32:00,64.1,55.0,29.84,WNW,286,6.0,20.0,72,0.01,,,0.01,weatherlink.com 1.10,2013-03-24 16:32:00,
2013-03-24 11:47:00,64.4,54.0,29.85,NW,304,8.0,20.0,68,0.01,,,0.01,weatherlink.com 1.10,2013-03-24 16:47:00,
2013-03-24 12:02:00,64.6,52.0,29.85,NNW,342,9.0,16.0,64,0.01,,,0.01,weatherlink.com 1.10,2013-03-24 17:02:00,
2013-03-24 12:17:00,64.1,51.0,29.85,WNW,284,8.0,19.0,63,0.01,,,0.01,weatherlink.com 1.10,2013-03-24 17:17:00,
2013-03-24 12:32:00,64.4,48.0,29.86,WNW,301,14.0,22.0,55,0.00,,,0.01,weatherlink.com 1.10,2013-03-24 17:32:00,
2013-03-24 12:47:00,65.7,49.0,29.86,NW,318,13.0,19.0,55,0.00,,,0.01,weatherlink.com 1.10,2013-03-24 17:47:00,
2013-03-24 13:02:00,65.3,45.0,29.85,WNW,288,9.0,26.0,48,0.00,,,0.01,weatherlink.com 1.10,2013-03-24 18:02:00,
2013-03-24 13:17:00,66.4,45.0,29.85,NW,304,14.0,19.0,47,0.00,,,0.01,weatherlink.com 1.10,2013-03-24 18:17:00,
2013-03-24 13:32:00,66.6,48.0,29.84,NW,318,7.0,16.0,52,0.00,,,0.01,weatherlink.com 1.10,2013-03-24 18:32:00,
2013-03-24 13:47:00,67.2,49.0,29.84,NW,311,6.0,21.0,52,0.00,,,0.01,weatherlink.com 1.10,2013-03-24 18:47:00,
2013-03-24 14:32:00,66.8,47.0,29.84,NW,305,8.0,20.0,49,0.00,,,0.01,weatherlink.com 1.10,2013-03-24 19:32:00,
2013-03-24 14:47:00,66.3,46.0,29.84,West,265,13.0,19.0,48,0.00,,,0.01,weatherlink.com 1.10,2013-03-24 19:47:00,
2013-03-24 15:17:00,66.8,45.0,29.84,WNW,298,9.0,18.0,45,0.00,,,0.01,weatherlink.com 1.10,2013-03-24 20:17:00,
2013-03-24 15:32:00,65.5,41.0,29.84,NNW,332,5.0,16.0,41,0.00,,,0.01,weatherlink.com 1.10,2013-03-24 20:32:00,
2013-03-24 15:47:00,64.8,40.0,29.84,WNW,303,12.0,21.0,40,0.00,,,0.01,weatherlink.com 1.10,2013-03-24 20:47:00,
2013-03-24 16:02:00,64.3,41.0,29.84,West,266,10.0,20.0,43,0.00,,,0.01,weatherlink.com 1.10,2013-03-24 21:02:00,
2013-03-24 16:17:00,64.5,37.0,29.85,NW,321,3.0,19.0,37,0.00,,,0.01,weatherlink.com 1.10,2013-03-24 21:17:00,
2013-03-24 16:32:00,63.8,38.0,29.85,NNW,327,6.0,15.0,39,0.00,,,0.01,weatherlink.com 1.10,2013-03-24 21:32:00,
2013-03-24 16:47:00,63.8,39.0,29.85,NNW,329,5.0,11.0,40,0.00,,,0.01,weatherlink.com 1.10,2013-03-24 21:47:00,
2013-03-24 17:02:00,63.1,38.0,29.85,NW,313,15.0,17.0,40,0.00,,,0.01,weatherlink.com 1.10,2013-03-24 22:02:00,
2013-03-24 17:17:00,62.5,38.0,29.85,NW,310,4.0,18.0,40,0.00,,,0.01,weatherlink.com 1.10,2013-03-24 22:17:00,
2013-03-24 17:32:00,62.1,38.0,29.86,North,355,6.0,16.0,41,0.00,,,0.01,weatherlink.com 1.10,2013-03-24 22:32:00,
2013-03-24 17:47:00,61.4,35.0,29.86,NW,315,8.0,18.0,37,0.00,,,0.01,weatherlink.com 1.10,2013-03-24 22:47:00,
2013-03-24 18:02:00,61.0,36.0,29.87,WNW,295,7.0,14.0,40,0.00,,,0.01,weatherlink.com 1.10,2013-03-24 23:02:00,
2013-03-24 18:17:00,60.4,37.0,29.87,NW,325,6.0,13.0,42,0.00,,,0.01,weatherlink.com 1.10,2013-03-24 23:17:00,
2013-03-24 18:32:00,59.5,36.0,29.88,NW,306,5.0,11.0,42,0.00,,,0.01,weatherlink.com 1.10,2013-03-24 23:32:00,
2013-03-24 18:47:00,58.5,35.0,29.89,NNW,337,4.0,12.0,42,0.00,,,0.01,weatherlink.com 1.10,2013-03-24 23:47:00,
2013-03-24 19:02:00,57.2,35.0,29.89,NW,323,9.0,13.0,44,0.00,,,0.01,weatherlink.com 1.10,2013-03-25 00:02:00,
2013-03-24 19:17:00,56.1,35.0,29.90,NNW,337,6.0,11.0,45,0.00,,,0.01,weatherlink.com 1.10,2013-03-25 00:17:00,
2013-03-24 19:32:00,55.2,35.0,29.91,NW,325,5.0,9.0,47,0.00,,,0.01,weatherlink.com 1.10,2013-03-25 00:32:00,
2013-03-24 19:48:00,54.3,35.0,29.92,NW,319,3.0,10.0,48,0.00,,,0.01,weatherlink.com 1.10,2013-03-25 00:48:00,
2013-03-24 20:03:00,53.8,34.0,29.92,NNW,327,5.0,13.0,47,0.00,,,0.01,weatherlink.com 1.10,2013-03-25 01:03:00,
2013-03-24 20:18:00,53.3,34.0,29.94,NW,304,5.0,11.0,49,0.00,,,0.01,weatherlink.com 1.10,2013-03-25 01:18:00,
2013-03-24 20:33:00,52.9,35.0,29.95,WNW,303,3.0,12.0,50,0.00,,,0.01,weatherlink.com 1.10,2013-03-25 01:33:00,
2013-03-24 20:48:00,52.2,35.0,29.96,NNW,336,1.0,6.0,52,0.00,,,0.01,weatherlink.com 1.10,2013-03-25 01:48:00,
2013-03-24 21:03:00,51.7,34.0,29.97,North,11,6.0,11.0,52,0.00,,,0.01,weatherlink.com 1.10,2013-03-25 02:03:00,
2013-03-24 21:18:00,51.0,34.0,29.98,NNE,26,3.0,9.0,53,0.00,,,0.01,weatherlink.com 1.10,2013-03-25 02:18:00,
2013-03-24 21:33:00,50.4,35.0,29.99,NNE,24,2.0,10.0,55,0.00,,,0.01,weatherlink.com 1.10,2013-03-25 02:33:00,
2013-03-24 21:48:00,49.9,35.0,30.00,WNW,284,2.0,9.0,57,0.00,,,0.01,weatherlink.com 1.10,2013-03-25 02:48:00,
2013-03-24 22:03:00,49.3,35.0,30.01,NNW,340,2.0,6.0,58,0.00,,,0.01,weatherlink.com 1.10,2013-03-25 03:03:00,
2013-03-24 22:18:00,49.0,35.0,30.02,NNW,336,3.0,10.0,58,0.00,,,0.01,weatherlink.com 1.10,2013-03-25 03:18:00,
2013-03-24 22:33:00,48.5,35.0,30.02,NNW,346,3.0,12.0,60,0.00,,,0.01,weatherlink.com 1.10,2013-03-25 03:33:00,
2013-03-24 22:48:00,48.1,35.0,30.03,North,5,3.0,9.0,60,0.00,,,0.01,weatherlink.com 1.10,2013-03-25 03:48:00,
2013-03-24 23:03:00,47.7,35.0,30.03,NNW,329,2.0,9.0,61,0.00,,,0.01,weatherlink.com 1.10,2013-03-25 04:03:00,
2013-03-24 23:18:00,47.5,34.0,30.04,North,355,4.0,13.0,59,0.00,,,0.01,weatherlink.com 1.10,2013-03-25 04:18:00,
2013-03-24 23:33:00,46.9,33.0,30.05,North,5,4.0,8.0,60,0.00,,,0.01,weatherlink.com 1.10,2013-03-25 04:33:00,
2013-03-24 23:48:00,46.2,34.0,30.05,North,5,2.0,8.0,62,0.00,,,0.01,weatherlink.com 1.10,2013-03-25 04:48:00,